マナウス の空港の天気 - METARとTAF

エドワルド ゴメス国際空港(マナウス) ( SBEG / MAO ) - ブラジル アマゾナス州マナウス
飛行場実況気象(Metar)
観測時間02/17 19:00 AMT (02/17 23:00 UTC)
風向・風速静穏 0m/s
視程10km以上
天気現象
少しの雲 雲底高度 760m
気温28℃
湿度74%
気圧1010hPa
METARSBEG 172300Z 00000KT 9999 FEW025 28/23 Q1010
過去の天気等 Google飛行場航空写真 Wunderground天気予報

過去48時間のMETAR

飛行場予報(TAF)
発表時間: 2/17 12:00 AMT (2/17 16:00 UTC)
予報対象時間: 17日14時 AMT ~ 18日14時 AMT
風向・風速北北東 4m/s
視程10km以上
全天の4割程度の雲 雲底高度 610m
少しの塔状積雲 雲底高度 760m
17日15時 AMT ~ 17日17時 AMT に徐々に
風向・風速北 4m/s
17日19時 AMT ~ 17日21時 AMT に徐々に
風向・風速北東 3m/s
視程10km以上
なし
17日23時 AMT ~ 18日1時 AMT に徐々に
風向・風速静穏
18日3時 AMT ~ 18日5時 AMT に徐々に
視程10km以上
少しの雲 雲底高度 370m
18日7時 AMT ~ 18日9時 AMT に徐々に
風向・風速北北東 3m/s
全天の4割程度の雲 雲底高度 270m
18日11時 AMT ~ 18日13時 AMT に徐々に
風向・風速北 5m/s
全天の4割程度の雲 雲底高度 610m
少しの塔状積雲 雲底高度 760m
TAF SBEG 171600Z 1718/1818 03008KT 9999 SCT020 FEW025TCU TX31/1718Z TN24/1807Z
BECMG 1719/1721 36008KT
BECMG 1723/1801 05005KT CAVOK
BECMG 1803/1805 00000KT
BECMG 1807/1809 9999 FEW012
BECMG 1811/1813 03005KT SCT009
BECMG 1815/1817 36010KT SCT020 FEW025TCU RMK PFN